Time;durP1;ratioP1;P1;durP2;ratioP2;P2;SDS_P1;SDS_P2;PMS_P1;PMS_P2;Temp;Humidity;BMP_temperature;BMP_pressure;BME280_temperature;BME280_humidity;BME280_pressure;Samples;Min_cycle;Max_cycle;Signal;HPM_P1;HPM_P2
2022/06/23 00:01:30;;;;;;;21.65;5.43;;;;;;;14.92;80.77;100172.94;5103817;28;20027;-69
2022/06/23 00:03:56;;;;;;;17.38;4.90;;;;;;;14.96;80.61;100170.19;5103921;28;20040;-69
2022/06/23 00:06:44;;;;;;;18.55;5.05;;;;;;;14.96;80.97;100169.31;5085661;28;20097;-69
2022/06/23 00:09:46;;;;;;;31.77;6.30;;;;;;;14.96;80.61;100175.41;5085602;28;20083;-69
2022/06/23 00:12:14;;;;;;;;;;;;;;;15.00;80.71;100170.91;5104150;28;20062;-69
2022/06/23 00:14:40;;;;;;;19.63;6.47;;;;;;;14.99;80.33;100174.44;5103495;28;19929;-69
2022/06/23 00:17:23;;;;;;;16.63;5.20;;;;;;;15.02;80.47;100171.75;5103776;28;20039;-69
2022/06/23 00:19:48;;;;;;;25.88;6.22;;;;;;;15.01;80.62;100174.41;5103703;28;20546;-69
2022/06/23 00:22:17;;;;;;;19.92;5.45;;;;;;;15.01;80.83;100175.25;5103501;28;20050;-69
2022/06/23 00:24:48;;;;;;;14.77;5.20;;;;;;;15.01;80.65;100170.03;5103536;28;20020;-69
2022/06/23 00:27:16;;;;;;;17.08;5.63;;;;;;;15.01;80.91;100172.66;5103557;28;20070;-69
2022/06/23 00:29:44;;;;;;;18.13;5.57;;;;;;;15.00;80.77;100173.53;5084951;28;20160;-68
2022/06/23 00:32:10;;;;;;;16.90;6.95;;;;;;;15.03;80.90;100183.06;5102941;28;20035;-68
2022/06/23 00:34:39;;;;;;;22.40;5.40;;;;;;;14.97;80.75;100174.50;5103561;28;20027;-69
2022/06/23 00:37:13;;;;;;;20.27;6.22;;;;;;;14.97;80.73;100177.09;5103406;28;20024;-71
2022/06/23 00:39:59;;;;;;;17.02;5.35;;;;;;;14.96;80.89;100185.88;5103440;28;20051;-69
2022/06/23 00:42:31;;;;;;;20.63;6.25;;;;;;;14.97;80.70;100186.69;5103327;28;20024;-69
2022/06/23 00:45:04;;;;;;;21.30;5.93;;;;;;;14.95;80.89;100185.91;5103058;28;20031;-69
2022/06/23 00:47:49;;;;;;;22.30;6.15;;;;;;;14.94;80.93;100195.50;5103566;28;20108;-69
2022/06/23 00:50:27;;;;;;;19.33;7.15;;;;;;;14.96;80.66;100195.44;5085044;28;20266;-69
2022/06/23 00:52:58;;;;;;;17.83;7.30;;;;;;;14.93;80.83;100201.63;5103070;28;20024;-69
2022/06/23 00:55:42;;;;;;;17.43;6.93;;;;;;;14.94;80.83;100205.97;5103288;28;20228;-70
2022/06/23 00:58:18;;;;;;;16.50;5.32;;;;;;;14.94;81.17;100211.19;5103551;28;20008;-70
2022/06/23 01:00:44;;;;;;;19.58;5.90;;;;;;;14.96;81.13;100213.75;5102892;28;20071;-69
2022/06/23 01:03:29;;;;;;;20.63;6.82;;;;;;;14.93;81.27;100217.31;5103029;28;20024;-70
2022/06/23 01:06:07;;;;;;;19.67;6.57;;;;;;;14.94;81.17;100216.41;5103084;28;20125;-70
2022/06/23 01:08:45;;;;;;;19.08;6.10;;;;;;;14.97;81.13;100223.28;5103138;28;20083;-69
2022/06/23 01:11:19;;;;;;;21.27;6.22;;;;;;;15.00;81.20;100212.75;5103155;28;20028;-70
2022/06/23 01:13:50;;;;;;;18.85;5.47;;;;;;;14.98;81.15;100204.94;5102744;28;20024;-69
2022/06/23 01:16:32;;;;;;;19.42;5.78;;;;;;;15.02;80.74;100216.19;5103151;28;20029;-70
2022/06/23 01:19:23;;;;;;;17.23;5.38;;;;;;;15.01;80.86;100213.59;5103100;28;20024;-69
2022/06/23 01:21:56;;;;;;;17.02;5.90;;;;;;;14.98;80.75;100219.81;5084780;28;20084;-69
2022/06/23 01:24:38;;;;;;;14.40;5.57;;;;;;;14.98;80.62;100225.03;5103058;28;20024;-70
2022/06/23 01:27:25;;;;;;;18.95;6.53;;;;;;;14.99;80.61;100214.53;5102962;28;20530;-69
2022/06/23 01:29:57;;;;;;;20.48;6.75;;;;;;;14.99;80.64;100221.50;5102874;28;20016;-69
2022/06/23 01:32:45;;;;;;;20.88;6.32;;;;;;;14.97;80.51;100218.06;5102844;28;20093;-70
2022/06/23 01:35:18;;;;;;;20.95;6.18;;;;;;;14.96;80.52;100224.22;5102757;28;20024;-70
2022/06/23 01:37:50;;;;;;;17.90;5.82;;;;;;;14.96;80.51;100226.81;5104248;28;20028;-70
2022/06/23 01:40:19;;;;;;;13.35;5.30;;;;;;;14.97;80.52;100233.75;5106603;28;20035;-70
2022/06/23 01:42:47;;;;;;;17.45;6.32;;;;;;;14.94;80.67;100236.47;5106540;28;20034;-70
2022/06/23 01:45:25;;;;;;;21.20;5.85;;;;;;;14.91;80.97;100234.81;5106390;28;20059;-70
2022/06/23 01:47:59;;;;;;;17.48;6.45;;;;;;;14.94;80.59;100236.47;5106461;28;20087;-69
2022/06/23 01:50:49;;;;;;;14.23;5.75;;;;;;;14.96;80.56;100242.50;5106586;28;20043;-69
2022/06/23 01:53:17;;;;;;;17.45;6.40;;;;;;;14.99;80.17;100248.50;5106405;28;20091;-69
2022/06/23 01:56:22;;;;;;;18.48;5.38;;;;;;;15.00;80.45;100244.13;5106280;28;20024;-69
2022/06/23 01:59:02;;;;;;;18.33;5.43;;;;;;;14.97;80.36;100244.22;5105849;28;20031;-68
2022/06/23 02:01:54;;;;;;;13.15;5.43;;;;;;;14.93;80.27;100240.84;5106162;28;20035;-69
2022/06/23 02:04:22;;;;;;;;;;;;;;;14.95;80.70;100252.09;5106995;28;20035;-69
2022/06/23 02:06:59;;;;;;;15.40;5.53;;;;;;;14.91;80.75;100239.16;5106665;28;19908;-68
2022/06/23 02:09:33;;;;;;;9.30;5.10;;;;;;;14.97;80.60;100244.22;5106159;28;20087;-68
2022/06/23 02:11:58;;;;;;;11.95;4.90;;;;;;;14.94;80.48;100236.47;5106396;28;20031;-69
2022/06/23 02:14:41;;;;;;;17.45;5.93;;;;;;;14.97;80.47;100242.47;5105808;28;20471;-69
2022/06/23 02:17:33;;;;;;;14.25;5.43;;;;;;;15.04;80.21;100244.88;5105877;28;20020;-68
2022/06/23 02:20:19;;;;;;;15.98;5.20;;;;;;;14.98;80.39;100251.16;5106028;28;20035;-69
2022/06/23 02:22:47;;;;;;;18.02;6.35;;;;;;;15.01;80.45;100260.66;5105652;28;20059;-69
2022/06/23 02:25:21;;;;;;;18.27;5.05;;;;;;;15.04;80.35;100256.22;5087637;28;20560;-68
2022/06/23 02:27:59;;;;;;;14.40;5.18;;;;;;;15.03;80.40;100264.94;5105745;28;20049;-69
2022/06/23 02:30:44;;;;;;;12.77;4.68;;;;;;;15.07;80.25;100260.47;5105610;28;20114;-68
2022/06/23 02:33:15;;;;;;;17.55;4.70;;;;;;;15.11;80.01;100260.34;5105449;28;20036;-68
2022/06/23 02:36:15;;;;;;;16.92;6.13;;;;;;;15.05;80.15;100272.75;5105893;28;20024;-68
2022/06/23 02:38:48;;;;;;;12.55;4.85;;;;;;;15.05;80.13;100270.16;5051498;28;20139;-68
2022/06/23 02:41:18;;;;;;;12.10;4.60;;;;;;;15.07;80.22;100274.41;5105563;28;20032;-68
2022/06/23 02:43:54;;;;;;;18.65;5.22;;;;;;;15.11;80.15;100278.66;5105360;28;20012;-68
2022/06/23 02:46:37;;;;;;;11.27;4.85;;;;;;;15.11;80.24;100286.50;5105760;28;20020;-68
2022/06/23 02:49:28;;;;;;;12.13;4.60;;;;;;;15.09;80.23;100284.84;5105313;28;20103;-70
2022/06/23 02:52:22;;;;;;;12.98;5.03;;;;;;;15.09;79.88;100290.94;5105283;28;20032;-69
2022/06/23 02:55:12;;;;;;;13.73;5.05;;;;;;;15.09;79.99;100295.28;5104544;28;20035;-68
2022/06/23 02:57:47;;;;;;;15.98;5.45;;;;;;;15.10;80.05;100284.78;5105324;28;20020;-69
2022/06/23 03:00:23;;;;;;;11.80;4.65;;;;;;;15.15;79.78;100283.78;5104937;28;20044;-69
2022/06/23 03:03:10;;;;;;;13.02;5.00;;;;;;;15.25;79.86;100280.00;5105155;28;20048;-69
2022/06/23 03:05:47;;;;;;;14.68;4.78;;;;;;;15.14;79.92;100293.41;5104991;28;20077;-68
2022/06/23 03:08:32;;;;;;;15.63;4.65;;;;;;;15.16;79.99;100295.97;5105066;28;20078;-69
2022/06/23 03:11:02;;;;;;;14.65;4.55;;;;;;;15.17;79.90;100297.69;5105151;28;20020;-69
2022/06/23 03:13:35;;;;;;;10.02;4.20;;;;;;;15.19;80.14;100294.09;5104792;28;20476;-69
2022/06/23 03:16:11;;;;;;;13.85;4.90;;;;;;;15.19;80.00;100298.50;5104852;28;20091;-69
2022/06/23 03:19:03;;;;;;;14.82;4.85;;;;;;;15.26;79.76;100307.00;5104687;28;20020;-69
2022/06/23 03:21:31;;;;;;;;;;;;;;;15.29;79.74;100299.91;5105067;28;20023;-69
2022/06/23 03:24:10;;;;;;;14.50;4.82;;;;;;;15.29;79.44;100318.22;5104591;28;19979;-68
2022/06/23 03:26:44;;;;;;;17.35;4.50;;;;;;;15.31;79.90;100321.66;5104589;28;20080;-69
2022/06/23 03:29:31;;;;;;;11.93;5.90;;;;;;;15.29;79.64;100315.63;5104208;28;20093;-68
2022/06/23 03:32:08;;;;;;;9.98;4.95;;;;;;;15.35;79.44;100319.81;5104381;28;20028;-69
2022/06/23 03:34:33;;;;;;;13.68;4.85;;;;;;;15.32;79.58;100319.91;5104429;28;20020;-69
2022/06/23 03:37:05;;;;;;;13.20;4.60;;;;;;;15.36;79.52;100309.31;5104499;28;20432;-69
2022/06/23 03:42:37;;;;;;;15.55;4.72;;;;;;;15.40;79.25;100304.81;5104214;28;20035;-70
2022/06/23 03:45:32;;;;;;;9.88;4.03;;;;;;;15.46;79.29;100311.66;5104188;28;20020;-70
2022/06/23 03:48:21;;;;;;;11.23;4.47;;;;;;;15.50;78.85;100326.34;5104201;28;20058;-70
2022/06/23 03:50:53;;;;;;;15.15;4.60;;;;;;;15.53;78.85;100321.00;5085992;28;20016;-69
2022/06/23 03:53:24;;;;;;;;;;;;;;;15.61;78.53;100329.47;5086214;28;20016;-69
2022/06/23 03:55:55;;;;;;;8.07;4.35;;;;;;;15.63;77.96;100337.28;5104092;28;20252;-69
2022/06/23 03:58:27;;;;;;;11.63;4.77;;;;;;;15.57;78.39;100332.25;5104131;28;20050;-69
2022/06/23 04:01:03;;;;;;;12.50;4.97;;;;;;;15.53;78.53;100334.09;5103266;28;20044;-69
2022/06/23 04:03:50;;;;;;;13.57;4.68;;;;;;;15.55;78.29;100328.81;5085712;28;20063;-70
2022/06/23 04:06:23;;;;;;;12.02;4.60;;;;;;;15.55;78.57;100345.38;5103856;28;20103;-72
2022/06/23 04:09:07;;;;;;;10.57;4.70;;;;;;;15.56;78.22;100325.31;5103810;28;20066;-72
2022/06/23 04:11:52;;;;;;;14.77;5.40;;;;;;;15.59;78.05;100331.28;5103706;28;20027;-73
2022/06/23 04:14:30;;;;;;;8.55;4.93;;;;;;;15.53;77.84;100336.72;5103493;28;20020;-71
2022/06/23 04:17:11;;;;;;;10.02;4.10;;;;;;;15.56;78.13;100330.53;5103653;28;20088;-72
2022/06/23 04:19:40;;;;;;;12.00;4.25;;;;;;;15.67;77.75;100330.22;5103552;28;20031;-72
2022/06/23 04:22:14;;;;;;;8.65;4.30;;;;;;;15.60;77.78;100335.63;5103814;28;20027;-71
2022/06/23 04:24:44;;;;;;;7.75;4.18;;;;;;;15.67;77.81;100332.81;5103557;28;20031;-71
2022/06/23 04:27:31;;;;;;;13.70;3.60;;;;;;;15.80;77.61;100336.75;5103554;28;20077;-70
2022/06/23 04:29:59;;;;;;;9.10;3.72;;;;;;;15.97;77.54;100333.63;5103379;28;20027;-66
2022/06/23 04:32:31;;;;;;;8.18;4.43;;;;;;;16.20;76.80;100352.13;5103163;28;20032;-70
2022/06/23 04:35:07;;;;;;;9.80;3.63;;;;;;;16.34;76.95;100343.81;5103220;28;20081;-70
2022/06/23 04:38:01;;;;;;;7.22;3.92;;;;;;;16.42;76.43;100346.19;5103309;28;20413;-68
2022/06/23 04:40:37;;;;;;;16.90;5.28;;;;;;;16.41;75.98;100347.94;5103351;28;20503;-71
2022/06/23 04:43:15;;;;;;;11.13;3.95;;;;;;;16.46;75.54;100356.50;5103259;28;20194;-69
2022/06/23 04:45:49;;;;;;;10.82;4.10;;;;;;;16.42;75.79;100365.34;5103462;28;20031;-69
2022/06/23 04:48:27;;;;;;;10.85;4.30;;;;;;;16.44;75.68;100370.53;5103576;28;20047;-70
2022/06/23 04:51:01;;;;;;;7.38;3.95;;;;;;;16.39;74.99;100364.63;5103456;28;20026;-69
2022/06/23 04:53:51;;;;;;;9.77;4.47;;;;;;;16.29;75.01;100366.69;5103017;28;20491;-69
2022/06/23 04:56:16;;;;;;;9.20;3.83;;;;;;;16.22;74.97;100371.25;5103385;28;20153;-69
2022/06/23 04:58:49;;;;;;;13.23;4.43;;;;;;;16.12;75.53;100365.47;5103278;28;20032;-68
2022/06/23 05:01:18;;;;;;;18.52;4.90;;;;;;;16.09;75.37;100368.19;5103315;28;20048;-69
2022/06/23 05:03:49;;;;;;;10.00;3.50;;;;;;;16.02;75.59;100366.69;5103582;28;20020;-69
2022/06/23 05:06:36;;;;;;;9.48;4.55;;;;;;;15.90;76.08;100375.72;5103401;28;20577;-69
2022/06/23 05:09:10;;;;;;;14.25;4.18;;;;;;;15.88;76.47;100377.56;5084999;28;20035;-69
2022/06/23 05:11:44;;;;;;;15.27;4.25;;;;;;;15.89;76.29;100374.91;5103168;28;20016;-69
2022/06/23 05:14:24;;;;;;;10.45;3.38;;;;;;;15.87;76.29;100376.69;5106700;28;20024;-68
2022/06/23 05:16:53;;;;;;;8.77;3.47;;;;;;;15.77;76.04;100376.13;5107200;28;20024;-69
2022/06/23 05:19:34;;;;;;;5.95;3.47;;;;;;;15.80;76.44;100391.72;5106989;28;20036;-69
2022/06/23 05:22:07;;;;;;;6.32;3.42;;;;;;;15.81;76.33;100377.75;5106827;28;20038;-69
2022/06/23 05:24:45;;;;;;;10.30;3.65;;;;;;;15.84;75.63;100382.03;5088653;28;20069;-69
2022/06/23 05:27:14;;;;;;;6.50;2.92;;;;;;;15.83;76.01;100401.25;5107089;28;20016;-69
2022/06/23 05:29:53;;;;;;;7.53;3.20;;;;;;;15.80;76.03;100403.97;5088492;28;20027;-69
2022/06/23 05:32:30;;;;;;;7.22;3.30;;;;;;;15.73;76.39;100395.44;5106672;28;20032;-69
2022/06/23 05:35:15;;;;;;;9.48;3.50;;;;;;;15.77;76.66;100397.06;5107014;28;20016;-69
2022/06/23 05:37:55;;;;;;;7.20;3.42;;;;;;;15.89;76.10;100405.44;5106798;28;20022;-69
2022/06/23 05:40:37;;;;;;;8.98;3.30;;;;;;;15.81;75.77;100419.63;5106770;28;20432;-68
2022/06/23 05:43:03;;;;;;;8.95;3.83;;;;;;;15.83;75.78;100415.19;5106789;28;20032;-69
2022/06/23 05:45:42;;;;;;;10.23;3.40;;;;;;;15.84;76.02;100408.19;5106187;28;20077;-69
2022/06/23 05:48:14;;;;;;;6.70;3.10;;;;;;;15.84;75.96;100408.19;5106651;28;20024;-70
2022/06/23 05:50:48;;;;;;;6.28;3.25;;;;;;;15.87;75.85;100410.72;5106171;28;20048;-70
2022/06/23 05:53:38;;;;;;;6.13;3.53;;;;;;;15.94;75.41;100403.53;5106280;28;20063;-69
2022/06/23 05:56:06;;;;;;;7.35;3.22;;;;;;;15.92;75.63;100406.22;5106526;28;20046;-69
2022/06/23 05:58:56;;;;;;;5.72;3.15;;;;;;;16.00;75.86;100413.84;5106665;28;20020;-70
2022/06/23 06:01:24;;;;;;;6.05;3.88;;;;;;;16.02;75.81;100417.28;5088112;28;20061;-70
2022/06/23 06:03:58;;;;;;;9.38;2.78;;;;;;;15.95;75.50;100410.47;5106365;28;20020;-69
2022/06/23 06:06:23;;;;;;;8.13;3.38;;;;;;;15.86;75.70;100407.25;5106309;28;20112;-70
2022/06/23 06:09:37;;;;;;;6.07;3.20;;;;;;;15.81;75.88;100421.38;5106203;28;20032;-69
2022/06/23 06:12:43;;;;;;;9.50;3.55;;;;;;;15.76;76.37;100413.66;5097765;28;20040;-70
2022/06/23 06:15:20;;;;;;;8.75;3.55;;;;;;;15.78;76.07;100411.88;5023333;28;20034;-70
2022/06/23 06:17:46;;;;;;;10.60;3.60;;;;;;;15.74;76.25;100411.09;5023147;28;20065;-68
2022/06/23 06:20:15;;;;;;;8.23;3.25;;;;;;;15.81;76.15;100419.63;5023303;28;20029;-69
2022/06/23 06:22:52;;;;;;;9.80;3.42;;;;;;;15.75;75.95;100419.78;5022837;28;20052;-70
2022/06/23 06:25:41;;;;;;;8.52;4.00;;;;;;;15.75;75.64;100422.41;5023428;28;20076;-70
2022/06/23 06:28:22;;;;;;;8.77;4.00;;;;;;;15.76;75.73;100434.63;5023151;28;20573;-71
2022/06/23 06:31:06;;;;;;;7.87;3.67;;;;;;;15.69;76.05;100439.16;5023052;28;20068;-69
2022/06/23 06:33:37;;;;;;;7.22;4.07;;;;;;;15.63;75.88;100434.13;5023063;28;20351;-70
2022/06/23 06:36:36;;;;;;;12.60;4.70;;;;;;;15.61;76.39;100431.53;5022962;28;20363;-69
2022/06/23 06:39:17;;;;;;;7.30;3.65;;;;;;;15.70;75.94;100437.41;5023143;28;20548;-69
2022/06/23 06:41:46;;;;;;;5.18;3.30;;;;;;;15.76;75.65;100434.63;5022900;28;20041;-69
2022/06/23 06:44:13;;;;;;;8.45;3.80;;;;;;;15.76;75.27;100438.97;5022608;28;20021;-69
2022/06/23 06:46:39;;;;;;;6.07;3.15;;;;;;;15.73;75.46;100446.00;5022909;28;20026;-69
2022/06/23 06:49:10;;;;;;;3.97;2.72;;;;;;;15.77;75.40;100449.41;5062232;28;20046;-71
2022/06/23 06:51:36;;;;;;;8.75;3.15;;;;;;;15.85;75.26;100450.03;5105446;28;20024;-68
2022/06/23 06:54:16;;;;;;;5.65;3.20;;;;;;;15.85;74.97;100457.88;5087324;28;20083;-70
2022/06/23 06:56:44;;;;;;;7.45;3.35;;;;;;;15.84;74.87;100455.31;5105550;28;20112;-70
2022/06/23 06:59:21;;;;;;;7.22;4.10;;;;;;;15.88;74.83;100453.47;5105150;28;20031;-71
2022/06/23 07:01:54;;;;;;;5.95;3.85;;;;;;;15.90;74.41;100454.25;5105591;28;20103;-70
2022/06/23 07:04:26;;;;;;;4.50;3.20;;;;;;;15.88;74.60;100453.47;5105470;28;20083;-68
2022/06/23 07:07:03;;;;;;;5.18;3.20;;;;;;;15.99;74.63;100469.72;5105391;28;20149;-69
2022/06/23 07:09:45;;;;;;;6.65;3.40;;;;;;;16.00;74.38;100474.09;5105260;28;20032;-69
2022/06/23 07:12:25;;;;;;;9.18;3.40;;;;;;;15.92;74.36;100470.78;5105015;28;20069;-69
2022/06/23 07:15:05;;;;;;;7.30;3.72;;;;;;;15.93;74.55;100478.59;5104745;28;20016;-68
2022/06/23 07:17:37;;;;;;;7.03;4.00;;;;;;;15.95;74.42;100470.69;5105101;28;20035;-69
2022/06/23 07:20:21;;;;;;;6.60;3.38;;;;;;;15.91;74.75;100471.72;5105035;28;20046;-68
2022/06/23 07:22:50;;;;;;;8.38;3.72;;;;;;;15.83;75.14;100464.91;5104866;28;20441;-68
2022/06/23 07:25:29;;;;;;;6.68;3.65;;;;;;;15.88;75.19;100474.41;5104953;28;20052;-68
2022/06/23 07:28:02;;;;;;;9.15;3.97;;;;;;;15.81;74.97;100485.06;5104910;28;20387;-68
2022/06/23 07:30:37;;;;;;;10.05;3.90;;;;;;;15.73;74.97;100479.19;5104495;28;20054;-69
2022/06/23 07:33:29;;;;;;;7.32;3.70;;;;;;;15.81;74.94;100479.84;5104562;28;20054;-69
2022/06/23 07:36:02;;;;;;;5.65;3.47;;;;;;;15.82;74.92;100489.41;5076941;28;20032;-68
2022/06/23 07:38:30;;;;;;;7.93;4.00;;;;;;;15.81;75.17;100486.81;5104578;28;20425;-69
2022/06/23 07:41:19;;;;;;;6.80;3.60;;;;;;;15.85;75.10;100484.06;5104490;28;20047;-69
2022/06/23 07:44:07;;;;;;;7.57;3.92;;;;;;;15.86;75.17;100488.38;5086132;28;20020;-69
2022/06/23 07:46:35;;;;;;;10.18;3.58;;;;;;;15.89;75.37;100491.84;5104478;28;20089;-69
2022/06/23 07:49:02;;;;;;;6.85;3.83;;;;;;;15.91;75.16;100497.88;5104346;28;20024;-69
2022/06/23 07:51:28;;;;;;;7.88;3.72;;;;;;;15.90;75.28;100497.03;5104399;28;20480;-69
2022/06/23 07:53:55;;;;;;;7.50;3.97;;;;;;;15.94;75.03;100493.41;5104348;28;20031;-69
2022/06/23 07:56:24;;;;;;;8.63;4.28;;;;;;;15.97;74.86;100501.19;5104377;28;20027;-69
2022/06/23 07:58:54;;;;;;;7.90;3.80;;;;;;;16.00;75.11;100502.88;5085991;28;20438;-69
2022/06/23 08:01:30;;;;;;;4.95;3.75;;;;;;;16.08;74.70;100500.91;5104163;28;20070;-69
2022/06/23 08:04:26;;;;;;;9.75;3.33;;;;;;;16.09;74.63;100506.97;5104154;28;20039;-69
2022/06/23 08:06:53;;;;;;;8.32;3.40;;;;;;;16.09;74.54;100505.22;5103923;28;20028;-69
2022/06/23 08:09:25;;;;;;;7.82;3.85;;;;;;;16.17;74.59;100504.13;5103994;28;20103;-69
2022/06/23 08:14:40;;;;;;;10.18;3.80;;;;;;;16.15;74.37;100501.53;5103976;28;19918;-69
2022/06/23 08:17:13;;;;;;;7.90;3.60;;;;;;;16.13;74.38;100511.22;5104008;28;20077;-69
2022/06/23 08:19:55;;;;;;;8.48;3.35;;;;;;;16.12;74.63;100508.66;5103990;28;20093;-69
2022/06/23 08:22:25;;;;;;;12.73;6.07;;;;;;;16.12;74.77;100513.91;5103797;28;20016;-69
2022/06/23 08:24:55;;;;;;;7.53;3.78;;;;;;;16.16;74.85;100513.75;5104064;28;20046;-69
2022/06/23 08:27:24;;;;;;;6.53;3.85;;;;;;;16.17;74.88;100518.09;5103771;28;20027;-69
2022/06/23 08:30:13;;;;;;;7.40;3.75;;;;;;;16.27;74.81;100525.66;5103752;28;20041;-69
2022/06/23 08:32:40;;;;;;;10.18;4.10;;;;;;;16.34;74.15;100524.59;5103076;28;20028;-70
2022/06/23 08:35:18;;;;;;;10.52;3.85;;;;;;;16.24;74.46;100516.13;5103663;28;20028;-69
2022/06/23 08:37:57;;;;;;;6.18;3.88;;;;;;;16.22;74.65;100531.03;5103618;28;20039;-69
2022/06/23 08:40:25;;;;;;;8.23;4.45;;;;;;;16.18;74.86;100534.66;5103717;28;20048;-69
2022/06/23 08:42:57;;;;;;;8.02;4.03;;;;;;;16.18;74.77;100539.91;5103864;28;20074;-70
2022/06/23 08:45:55;;;;;;;9.93;5.15;;;;;;;16.19;74.82;100534.63;5103458;28;20020;-70
2022/06/23 08:48:39;;;;;;;6.45;4.30;;;;;;;16.13;75.10;100540.03;5103763;28;20024;-70
2022/06/23 08:51:19;;;;;;;9.60;4.82;;;;;;;16.12;75.71;100540.94;5103469;28;20028;-70
2022/06/23 08:53:56;;;;;;;11.77;4.55;;;;;;;16.12;75.64;100543.53;5103415;28;20027;-70
2022/06/23 08:56:33;;;;;;;9.57;5.20;;;;;;;16.00;76.21;100542.16;5103607;28;20355;-70
2022/06/23 08:59:04;;;;;;;8.93;4.78;;;;;;;16.00;76.65;100539.53;5103182;28;20352;-70
2022/06/23 09:01:43;;;;;;;8.40;4.77;;;;;;;15.98;76.50;100536.09;5103605;28;20036;-70
2022/06/23 09:04:44;;;;;;;10.52;5.00;;;;;;;15.93;76.96;100537.94;5103408;28;20257;-71
2022/06/23 09:07:27;;;;;;;10.25;5.60;;;;;;;15.90;77.11;100546.75;5085701;28;20043;-70
2022/06/23 09:10:02;;;;;;;9.32;4.80;;;;;;;15.89;77.35;100542.44;5103458;28;20028;-70
2022/06/23 09:12:38;;;;;;;9.50;5.53;;;;;;;15.89;77.56;100549.44;5084941;28;20032;-71
2022/06/23 09:15:21;;;;;;;9.07;4.70;;;;;;;15.94;77.82;100555.41;5102982;28;20024;-71
2022/06/23 09:18:09;;;;;;;8.02;4.65;;;;;;;16.03;77.78;100554.28;5103304;28;20493;-71
2022/06/23 09:20:52;;;;;;;10.68;4.68;;;;;;;16.09;77.82;100549.75;5103270;28;20091;-69
2022/06/23 09:23:46;;;;;;;7.47;4.55;;;;;;;16.13;77.89;100550.53;5103304;28;20035;-70
2022/06/23 09:26:14;;;;;;;9.45;4.88;;;;;;;16.20;77.62;100559.03;5103516;28;20028;-70
2022/06/23 09:28:57;;;;;;;8.63;4.55;;;;;;;16.26;77.83;100558.00;5103477;28;20020;-70
2022/06/23 09:32:01;;;;;;;9.27;4.63;;;;;;;16.31;78.06;100563.97;5103109;28;20020;-71
2022/06/23 09:34:32;;;;;;;6.88;4.95;;;;;;;16.44;78.04;100567.06;5064041;28;20051;-70
2022/06/23 09:37:22;;;;;;;7.68;5.68;;;;;;;16.63;77.42;100563.88;5103211;28;20134;-70
2022/06/23 09:40:12;;;;;;;11.50;4.85;;;;;;;16.58;76.96;100570.13;5103208;28;20028;-69
2022/06/23 09:43:04;;;;;;;10.48;5.30;;;;;;;16.44;76.69;100567.91;5103145;28;20016;-71
2022/06/23 09:45:59;;;;;;;10.17;5.20;;;;;;;16.28;76.87;100561.44;5103167;28;20016;-69
2022/06/23 09:48:27;;;;;;;13.23;5.70;;;;;;;16.14;77.42;100562.69;5103159;28;20339;-69
2022/06/23 09:51:10;;;;;;;13.60;5.85;;;;;;;16.06;77.83;100559.44;5103378;28;20028;-69
2022/06/23 09:54:20;;;;;;;9.32;4.93;;;;;;;16.11;78.39;100568.03;5102988;28;20020;-69
2022/06/23 09:56:51;;;;;;;10.07;5.43;;;;;;;16.20;78.14;100572.13;5063972;28;20040;-70
2022/06/23 09:59:37;;;;;;;10.77;5.73;;;;;;;16.25;78.31;100572.00;5104741;28;20048;-70
2022/06/23 10:02:22;;;;;;;10.15;4.53;;;;;;;16.29;77.69;100566.63;5106480;28;20092;-69
2022/06/23 10:04:59;;;;;;;9.43;5.18;;;;;;;16.23;77.79;100572.03;5106548;28;20040;-70
2022/06/23 10:07:53;;;;;;;10.15;4.90;;;;;;;16.32;77.83;100563.94;5106319;28;20065;-70
2022/06/23 10:10:36;;;;;;;11.38;5.07;;;;;;;16.42;77.81;100574.97;5106268;28;20024;-70
2022/06/23 10:13:14;;;;;;;10.05;4.93;;;;;;;16.50;77.61;100577.38;5106032;28;20056;-70
2022/06/23 10:15:49;;;;;;;9.02;5.20;;;;;;;16.62;77.45;100570.00;5105940;28;20030;-71
2022/06/23 10:18:30;;;;;;;7.93;4.40;;;;;;;16.61;76.50;100579.66;5106273;28;20042;-70
2022/06/23 10:21:01;;;;;;;10.85;5.70;;;;;;;16.56;76.24;100577.19;5106053;28;20031;-70
2022/06/23 10:23:43;;;;;;;6.20;4.55;;;;;;;16.51;76.47;100578.22;5106065;28;20024;-70
2022/06/23 10:26:24;;;;;;;10.73;5.38;;;;;;;16.52;76.53;100569.47;5106196;28;20103;-70
2022/06/23 10:28:52;;;;;;;9.77;5.68;;;;;;;16.55;76.36;100572.81;5106017;28;20035;-70
2022/06/23 10:31:26;;;;;;;10.30;5.40;;;;;;;16.64;76.54;100576.06;5105597;28;20050;-70
2022/06/23 10:34:04;;;;;;;11.57;5.20;;;;;;;16.79;76.06;100575.59;5105696;28;20024;-69
2022/06/23 10:36:32;;;;;;;6.32;4.53;;;;;;;16.93;75.77;100582.16;5106146;28;20024;-70
2022/06/23 10:39:27;;;;;;;7.75;5.10;;;;;;;17.19;75.38;100588.34;5105876;28;20027;-71
2022/06/23 10:42:13;;;;;;;7.05;4.90;;;;;;;17.38;75.09;100578.06;5105644;28;20046;-71
2022/06/23 10:45:00;;;;;;;8.02;4.10;;;;;;;17.47;73.78;100576.91;5105300;28;20048;-70
2022/06/23 10:47:44;;;;;;;6.30;4.15;;;;;;;17.61;74.00;100588.69;5105704;28;20092;-71
2022/06/23 10:50:27;;;;;;;9.48;4.40;;;;;;;17.56;72.86;100589.72;5105749;28;20081;-71
2022/06/23 10:53:01;;;;;;;8.68;3.95;;;;;;;17.53;72.18;100592.44;5105488;28;20016;-69
2022/06/23 10:55:44;;;;;;;9.15;4.82;;;;;;;17.60;71.58;100593.09;5105360;28;20396;-70
2022/06/23 10:58:32;;;;;;;5.15;3.97;;;;;;;17.69;71.93;100595.41;5105359;28;20020;-69
2022/06/23 11:01:43;;;;;;;5.95;4.00;;;;;;;17.70;71.12;100594.47;5105050;28;20048;-69
2022/06/23 11:04:11;;;;;;;6.35;3.70;;;;;;;17.73;71.11;100598.78;5066562;28;20056;-69
2022/06/23 11:06:49;;;;;;;8.85;4.38;;;;;;;17.77;70.83;100600.38;5105123;28;20057;-69
2022/06/23 11:09:33;;;;;;;5.25;3.80;;;;;;;17.76;70.84;100598.66;5104950;28;20016;-69
2022/06/23 11:12:08;;;;;;;12.30;4.65;;;;;;;17.69;70.79;100598.03;5104797;28;20020;-68
2022/06/23 11:14:51;;;;;;;8.02;3.65;;;;;;;17.64;70.77;100599.06;5104808;28;20034;-69
2022/06/23 11:17:30;;;;;;;8.10;3.60;;;;;;;17.57;70.67;100594.03;5105331;28;20028;-69
2022/06/23 11:20:24;;;;;;;7.45;3.78;;;;;;;17.64;71.31;100601.69;5105320;28;20073;-69
2022/06/23 11:23:25;;;;;;;9.80;3.97;;;;;;;17.79;70.76;100598.56;5105044;28;20076;-70
2022/06/23 11:26:24;;;;;;;7.25;3.83;;;;;;;17.87;70.40;100597.41;5086764;28;20031;-70
2022/06/23 11:29:10;;;;;;;7.40;3.72;;;;;;;17.90;69.97;100594.66;5104703;28;20024;-68
2022/06/23 11:32:21;;;;;;;6.20;3.90;;;;;;;17.80;69.47;100589.75;5104780;28;20332;-69
2022/06/23 11:35:14;;;;;;;4.85;3.40;;;;;;;17.70;69.54;100607.59;5104682;28;20027;-70
2022/06/23 11:37:58;;;;;;;8.93;3.90;;;;;;;17.74;69.68;100608.34;5104649;28;20056;-70
2022/06/23 11:40:41;;;;;;;6.35;3.05;;;;;;;17.86;69.58;100611.47;5104639;28;20461;-70
2022/06/23 11:43:26;;;;;;;7.38;3.75;;;;;;;17.93;69.25;100611.19;5104450;28;20119;-70
2022/06/23 11:46:05;;;;;;;7.90;3.90;;;;;;;17.99;69.16;100619.75;5104332;28;20028;-70
2022/06/23 11:49:00;;;;;;;5.80;3.58;;;;;;;18.06;68.95;100616.84;5104398;28;20510;-70
2022/06/23 11:51:31;;;;;;;8.68;3.92;;;;;;;18.04;68.54;100608.16;5104493;28;20035;-70
2022/06/23 11:54:21;;;;;;;6.28;4.03;;;;;;;17.98;68.37;100603.13;5104362;28;20039;-70
2022/06/23 11:57:07;;;;;;;10.30;3.83;;;;;;;18.00;68.88;100610.97;5104497;28;20043;-70
2022/06/23 11:59:42;;;;;;;7.10;3.92;;;;;;;18.13;69.03;100612.25;5085716;28;20539;-69
2022/06/23 12:02:07;;;;;;;7.25;3.83;;;;;;;18.29;68.58;100612.53;5104146;28;20101;-69
2022/06/23 12:04:54;;;;;;;6.95;4.25;;;;;;;18.40;67.49;100613.91;5104295;28;20031;-69
2022/06/23 12:07:19;;;;;;;8.32;4.22;;;;;;;18.43;67.74;100613.78;5104121;28;20082;-69
2022/06/23 12:10:22;;;;;;;7.25;4.32;;;;;;;18.61;67.32;100604.31;5104024;28;20027;-70
2022/06/23 12:12:51;;;;;;;8.82;4.68;;;;;;;18.72;66.32;100614.44;5103962;28;20031;-71
2022/06/23 12:15:22;;;;;;;6.30;4.35;;;;;;;18.79;66.55;100609.78;5103808;28;20468;-70
2022/06/23 12:17:54;;;;;;;9.60;4.78;;;;;;;18.87;66.26;100617.34;5103905;28;20031;-71
2022/06/23 12:20:35;;;;;;;7.57;4.65;;;;;;;18.79;65.91;100608.00;5104134;28;20042;-71